sensor_id;sensor_type;location;lat;lon;timestamp;P1;durP1;ratioP1;P2;durP2;ratioP2
3647;SDS011;1840;48.892;15.312;2022-09-30T00:01:32;14.53;;;9.33;;
3647;SDS011;1840;48.892;15.312;2022-09-30T00:04:02;16.67;;;11.00;;
3647;SDS011;1840;48.892;15.312;2022-09-30T00:06:30;19.33;;;10.40;;
3647;SDS011;1840;48.892;15.312;2022-09-30T00:09:00;13.07;;;9.60;;
3647;SDS011;1840;48.892;15.312;2022-09-30T00:11:31;15.40;;;9.63;;
3647;SDS011;1840;48.892;15.312;2022-09-30T00:14:00;15.60;;;11.37;;
3647;SDS011;1840;48.892;15.312;2022-09-30T00:16:29;15.63;;;9.80;;
3647;SDS011;1840;48.892;15.312;2022-09-30T00:18:59;14.37;;;10.40;;
3647;SDS011;1840;48.892;15.312;2022-09-30T00:21:29;17.90;;;12.03;;
3647;SDS011;1840;48.892;15.312;2022-09-30T00:23:57;18.63;;;10.53;;
3647;SDS011;1840;48.892;15.312;2022-09-30T00:26:26;19.33;;;9.97;;
3647;SDS011;1840;48.892;15.312;2022-09-30T00:28:56;17.67;;;11.93;;
3647;SDS011;1840;48.892;15.312;2022-09-30T00:31:26;17.93;;;9.87;;
3647;SDS011;1840;48.892;15.312;2022-09-30T00:33:56;14.20;;;9.60;;
3647;SDS011;1840;48.892;15.312;2022-09-30T00:36:34;14.10;;;9.83;;
3647;SDS011;1840;48.892;15.312;2022-09-30T00:39:05;14.00;;;10.20;;
3647;SDS011;1840;48.892;15.312;2022-09-30T00:41:34;20.90;;;11.43;;
3647;SDS011;1840;48.892;15.312;2022-09-30T00:47:05;17.80;;;12.20;;
3647;SDS011;1840;48.892;15.312;2022-09-30T00:49:52;16.13;;;11.70;;
3647;SDS011;1840;48.892;15.312;2022-09-30T00:52:22;26.07;;;12.73;;
3647;SDS011;1840;48.892;15.312;2022-09-30T00:54:50;21.63;;;12.60;;
3647;SDS011;1840;48.892;15.312;2022-09-30T00:57:19;18.23;;;12.93;;
3647;SDS011;1840;48.892;15.312;2022-09-30T00:59:47;17.17;;;12.50;;
3647;SDS011;1840;48.892;15.312;2022-09-30T01:02:20;19.50;;;11.23;;
3647;SDS011;1840;48.892;15.312;2022-09-30T01:04:48;14.57;;;10.87;;
3647;SDS011;1840;48.892;15.312;2022-09-30T01:07:16;17.90;;;11.80;;
3647;SDS011;1840;48.892;15.312;2022-09-30T01:09:45;21.30;;;10.57;;
3647;SDS011;1840;48.892;15.312;2022-09-30T01:12:15;20.83;;;12.77;;
3647;SDS011;1840;48.892;15.312;2022-09-30T01:14:46;15.87;;;11.00;;
3647;SDS011;1840;48.892;15.312;2022-09-30T01:17:21;17.40;;;10.40;;
3647;SDS011;1840;48.892;15.312;2022-09-30T01:22:57;17.87;;;13.37;;
3647;SDS011;1840;48.892;15.312;2022-09-30T01:26:05;19.27;;;12.67;;
3647;SDS011;1840;48.892;15.312;2022-09-30T01:29:06;22.50;;;12.50;;
3647;SDS011;1840;48.892;15.312;2022-09-30T01:31:54;23.23;;;11.00;;
3647;SDS011;1840;48.892;15.312;2022-09-30T01:34:32;18.53;;;11.90;;
3647;SDS011;1840;48.892;15.312;2022-09-30T01:37:10;20.07;;;12.87;;
3647;SDS011;1840;48.892;15.312;2022-09-30T01:39:49;22.83;;;14.27;;
3647;SDS011;1840;48.892;15.312;2022-09-30T01:42:26;17.33;;;12.20;;
3647;SDS011;1840;48.892;15.312;2022-09-30T01:45:04;16.87;;;11.20;;
3647;SDS011;1840;48.892;15.312;2022-09-30T01:47:40;17.60;;;12.10;;
3647;SDS011;1840;48.892;15.312;2022-09-30T01:50:13;15.10;;;11.10;;
3647;SDS011;1840;48.892;15.312;2022-09-30T01:52:47;18.97;;;13.03;;
3647;SDS011;1840;48.892;15.312;2022-09-30T01:55:20;16.20;;;10.90;;
3647;SDS011;1840;48.892;15.312;2022-09-30T01:57:55;15.80;;;11.00;;
3647;SDS011;1840;48.892;15.312;2022-09-30T02:00:27;21.73;;;13.20;;
3647;SDS011;1840;48.892;15.312;2022-09-30T02:02:59;19.97;;;12.57;;
3647;SDS011;1840;48.892;15.312;2022-09-30T02:05:33;20.10;;;11.53;;
3647;SDS011;1840;48.892;15.312;2022-09-30T02:08:06;14.50;;;10.77;;
3647;SDS011;1840;48.892;15.312;2022-09-30T02:10:43;23.30;;;13.43;;
3647;SDS011;1840;48.892;15.312;2022-09-30T02:13:14;16.10;;;11.40;;
3647;SDS011;1840;48.892;15.312;2022-09-30T02:15:46;15.40;;;10.57;;
3647;SDS011;1840;48.892;15.312;2022-09-30T02:18:20;20.27;;;12.90;;
3647;SDS011;1840;48.892;15.312;2022-09-30T02:20:55;15.20;;;9.83;;
3647;SDS011;1840;48.892;15.312;2022-09-30T02:23:27;17.17;;;11.47;;
3647;SDS011;1840;48.892;15.312;2022-09-30T02:25:58;15.97;;;9.80;;
3647;SDS011;1840;48.892;15.312;2022-09-30T02:28:31;15.00;;;9.83;;
3647;SDS011;1840;48.892;15.312;2022-09-30T02:31:02;18.43;;;10.47;;
3647;SDS011;1840;48.892;15.312;2022-09-30T02:33:34;17.03;;;11.60;;
3647;SDS011;1840;48.892;15.312;2022-09-30T02:36:07;14.30;;;10.10;;
3647;SDS011;1840;48.892;15.312;2022-09-30T02:38:39;14.43;;;8.97;;
3647;SDS011;1840;48.892;15.312;2022-09-30T02:41:11;21.33;;;10.20;;
3647;SDS011;1840;48.892;15.312;2022-09-30T02:43:43;17.13;;;10.87;;
3647;SDS011;1840;48.892;15.312;2022-09-30T02:46:13;13.40;;;9.30;;
3647;SDS011;1840;48.892;15.312;2022-09-30T02:48:52;13.80;;;10.37;;
3647;SDS011;1840;48.892;15.312;2022-09-30T02:51:28;23.53;;;11.43;;
3647;SDS011;1840;48.892;15.312;2022-09-30T02:54:07;15.50;;;8.93;;
3647;SDS011;1840;48.892;15.312;2022-09-30T02:56:47;15.50;;;10.40;;
3647;SDS011;1840;48.892;15.312;2022-09-30T02:59:21;15.90;;;10.40;;
3647;SDS011;1840;48.892;15.312;2022-09-30T03:01:49;16.23;;;9.07;;
3647;SDS011;1840;48.892;15.312;2022-09-30T03:04:20;13.17;;;8.57;;
3647;SDS011;1840;48.892;15.312;2022-09-30T03:06:51;12.00;;;8.43;;
3647;SDS011;1840;48.892;15.312;2022-09-30T03:09:23;13.10;;;10.10;;
3647;SDS011;1840;48.892;15.312;2022-09-30T03:11:52;14.70;;;9.00;;
3647;SDS011;1840;48.892;15.312;2022-09-30T03:14:39;16.20;;;9.27;;
3647;SDS011;1840;48.892;15.312;2022-09-30T03:17:20;15.17;;;9.53;;
3647;SDS011;1840;48.892;15.312;2022-09-30T03:20:08;12.20;;;8.10;;
3647;SDS011;1840;48.892;15.312;2022-09-30T03:22:50;10.50;;;7.50;;
3647;SDS011;1840;48.892;15.312;2022-09-30T03:25:31;11.03;;;8.10;;
3647;SDS011;1840;48.892;15.312;2022-09-30T03:28:12;16.60;;;10.13;;
3647;SDS011;1840;48.892;15.312;2022-09-30T03:30:52;13.40;;;9.57;;
3647;SDS011;1840;48.892;15.312;2022-09-30T03:33:30;16.10;;;10.70;;
3647;SDS011;1840;48.892;15.312;2022-09-30T03:36:10;11.77;;;8.70;;
3647;SDS011;1840;48.892;15.312;2022-09-30T03:38:46;12.80;;;8.10;;
3647;SDS011;1840;48.892;15.312;2022-09-30T03:41:19;13.63;;;8.23;;
3647;SDS011;1840;48.892;15.312;2022-09-30T03:43:55;12.30;;;8.27;;
3647;SDS011;1840;48.892;15.312;2022-09-30T03:46:29;11.30;;;7.37;;
3647;SDS011;1840;48.892;15.312;2022-09-30T03:49:02;12.13;;;8.53;;
3647;SDS011;1840;48.892;15.312;2022-09-30T03:51:35;15.10;;;9.47;;
3647;SDS011;1840;48.892;15.312;2022-09-30T03:54:05;10.67;;;8.00;;
3647;SDS011;1840;48.892;15.312;2022-09-30T03:56:37;15.70;;;10.10;;
3647;SDS011;1840;48.892;15.312;2022-09-30T03:59:09;14.50;;;10.00;;
3647;SDS011;1840;48.892;15.312;2022-09-30T04:01:39;10.97;;;8.13;;
3647;SDS011;1840;48.892;15.312;2022-09-30T04:04:07;12.60;;;8.50;;
3647;SDS011;1840;48.892;15.312;2022-09-30T04:06:36;16.30;;;10.37;;
3647;SDS011;1840;48.892;15.312;2022-09-30T04:09:04;12.80;;;8.87;;
3647;SDS011;1840;48.892;15.312;2022-09-30T04:11:33;15.17;;;11.20;;
3647;SDS011;1840;48.892;15.312;2022-09-30T04:14:01;18.73;;;11.17;;
3647;SDS011;1840;48.892;15.312;2022-09-30T04:16:31;15.00;;;10.50;;
3647;SDS011;1840;48.892;15.312;2022-09-30T04:18:59;15.00;;;11.10;;
3647;SDS011;1840;48.892;15.312;2022-09-30T04:21:29;28.10;;;11.90;;
3647;SDS011;1840;48.892;15.312;2022-09-30T04:23:59;13.17;;;9.73;;
3647;SDS011;1840;48.892;15.312;2022-09-30T04:26:27;16.43;;;11.10;;
3647;SDS011;1840;48.892;15.312;2022-09-30T04:28:57;13.90;;;9.33;;
3647;SDS011;1840;48.892;15.312;2022-09-30T04:31:25;13.97;;;9.30;;
3647;SDS011;1840;48.892;15.312;2022-09-30T04:33:53;13.00;;;9.13;;
3647;SDS011;1840;48.892;15.312;2022-09-30T04:36:23;21.50;;;12.70;;
3647;SDS011;1840;48.892;15.312;2022-09-30T04:38:51;13.07;;;9.83;;
3647;SDS011;1840;48.892;15.312;2022-09-30T04:41:21;14.57;;;9.10;;
3647;SDS011;1840;48.892;15.312;2022-09-30T04:43:49;20.57;;;12.23;;
3647;SDS011;1840;48.892;15.312;2022-09-30T04:46:17;12.30;;;9.60;;
3647;SDS011;1840;48.892;15.312;2022-09-30T04:48:47;17.50;;;11.07;;
3647;SDS011;1840;48.892;15.312;2022-09-30T04:51:16;15.80;;;11.83;;
3647;SDS011;1840;48.892;15.312;2022-09-30T04:53:46;15.40;;;10.30;;
3647;SDS011;1840;48.892;15.312;2022-09-30T04:56:15;23.50;;;12.40;;
3647;SDS011;1840;48.892;15.312;2022-09-30T04:58:45;17.67;;;10.83;;
3647;SDS011;1840;48.892;15.312;2022-09-30T05:01:13;19.03;;;11.87;;
3647;SDS011;1840;48.892;15.312;2022-09-30T05:03:43;16.83;;;12.17;;
3647;SDS011;1840;48.892;15.312;2022-09-30T05:06:12;19.93;;;11.30;;
3647;SDS011;1840;48.892;15.312;2022-09-30T05:08:40;12.60;;;10.20;;
3647;SDS011;1840;48.892;15.312;2022-09-30T05:11:12;15.90;;;11.13;;
3647;SDS011;1840;48.892;15.312;2022-09-30T05:13:42;25.43;;;14.50;;
3647;SDS011;1840;48.892;15.312;2022-09-30T05:16:13;23.10;;;13.57;;
3647;SDS011;1840;48.892;15.312;2022-09-30T05:18:42;28.47;;;14.07;;
3647;SDS011;1840;48.892;15.312;2022-09-30T05:21:12;19.43;;;14.10;;
3647;SDS011;1840;48.892;15.312;2022-09-30T05:23:42;18.17;;;13.50;;
3647;SDS011;1840;48.892;15.312;2022-09-30T05:26:10;16.40;;;10.60;;
3647;SDS011;1840;48.892;15.312;2022-09-30T05:28:38;15.87;;;12.20;;
3647;SDS011;1840;48.892;15.312;2022-09-30T05:31:08;21.90;;;13.47;;
3647;SDS011;1840;48.892;15.312;2022-09-30T05:33:37;21.27;;;14.47;;
3647;SDS011;1840;48.892;15.312;2022-09-30T05:36:07;19.70;;;11.77;;
3647;SDS011;1840;48.892;15.312;2022-09-30T05:38:38;17.07;;;12.20;;
3647;SDS011;1840;48.892;15.312;2022-09-30T05:41:06;18.50;;;11.40;;
3647;SDS011;1840;48.892;15.312;2022-09-30T05:43:36;18.33;;;11.00;;
3647;SDS011;1840;48.892;15.312;2022-09-30T05:46:05;17.47;;;11.50;;
3647;SDS011;1840;48.892;15.312;2022-09-30T05:48:35;17.67;;;12.20;;
3647;SDS011;1840;48.892;15.312;2022-09-30T05:51:03;15.23;;;11.30;;
3647;SDS011;1840;48.892;15.312;2022-09-30T05:53:33;13.00;;;9.77;;
3647;SDS011;1840;48.892;15.312;2022-09-30T05:56:04;13.23;;;9.03;;
3647;SDS011;1840;48.892;15.312;2022-09-30T05:58:32;13.03;;;9.50;;
3647;SDS011;1840;48.892;15.312;2022-09-30T06:01:02;12.97;;;8.73;;
3647;SDS011;1840;48.892;15.312;2022-09-30T06:03:40;18.50;;;11.47;;
3647;SDS011;1840;48.892;15.312;2022-09-30T06:06:09;13.03;;;7.93;;
3647;SDS011;1840;48.892;15.312;2022-09-30T06:08:38;12.03;;;9.07;;
3647;SDS011;1840;48.892;15.312;2022-09-30T06:11:07;12.20;;;7.43;;
3647;SDS011;1840;48.892;15.312;2022-09-30T06:13:38;12.40;;;7.30;;
3647;SDS011;1840;48.892;15.312;2022-09-30T06:16:07;11.70;;;8.00;;
3647;SDS011;1840;48.892;15.312;2022-09-30T06:18:36;12.07;;;7.90;;
3647;SDS011;1840;48.892;15.312;2022-09-30T06:21:09;11.37;;;7.50;;
3647;SDS011;1840;48.892;15.312;2022-09-30T06:23:38;9.47;;;7.40;;
3647;SDS011;1840;48.892;15.312;2022-09-30T06:26:07;14.20;;;8.67;;
3647;SDS011;1840;48.892;15.312;2022-09-30T06:28:36;13.00;;;7.80;;
3647;SDS011;1840;48.892;15.312;2022-09-30T06:31:05;11.97;;;7.43;;
3647;SDS011;1840;48.892;15.312;2022-09-30T06:33:33;13.33;;;8.20;;
3647;SDS011;1840;48.892;15.312;2022-09-30T06:36:02;12.43;;;8.50;;
3647;SDS011;1840;48.892;15.312;2022-09-30T06:38:40;12.73;;;8.30;;
3647;SDS011;1840;48.892;15.312;2022-09-30T06:41:08;9.60;;;7.13;;
3647;SDS011;1840;48.892;15.312;2022-09-30T06:43:38;12.13;;;7.37;;
3647;SDS011;1840;48.892;15.312;2022-09-30T06:46:15;11.30;;;7.70;;
3647;SDS011;1840;48.892;15.312;2022-09-30T06:48:53;11.63;;;7.73;;
3647;SDS011;1840;48.892;15.312;2022-09-30T06:51:36;13.23;;;8.10;;
3647;SDS011;1840;48.892;15.312;2022-09-30T06:54:05;14.53;;;9.97;;
3647;SDS011;1840;48.892;15.312;2022-09-30T06:56:34;14.90;;;9.37;;
3647;SDS011;1840;48.892;15.312;2022-09-30T06:59:02;14.53;;;8.30;;
3647;SDS011;1840;48.892;15.312;2022-09-30T07:01:30;13.73;;;9.10;;
3647;SDS011;1840;48.892;15.312;2022-09-30T07:03:58;14.50;;;9.43;;
3647;SDS011;1840;48.892;15.312;2022-09-30T07:06:33;14.83;;;9.80;;
3647;SDS011;1840;48.892;15.312;2022-09-30T07:09:01;17.27;;;11.20;;
3647;SDS011;1840;48.892;15.312;2022-09-30T07:11:31;16.80;;;10.37;;
3647;SDS011;1840;48.892;15.312;2022-09-30T07:14:02;12.07;;;9.23;;
3647;SDS011;1840;48.892;15.312;2022-09-30T07:16:30;13.10;;;10.10;;
3647;SDS011;1840;48.892;15.312;2022-09-30T07:19:00;14.43;;;10.53;;
3647;SDS011;1840;48.892;15.312;2022-09-30T07:21:28;14.70;;;10.70;;
3647;SDS011;1840;48.892;15.312;2022-09-30T07:23:57;13.33;;;10.57;;
3647;SDS011;1840;48.892;15.312;2022-09-30T07:26:25;38.50;;;16.40;;
3647;SDS011;1840;48.892;15.312;2022-09-30T07:28:55;18.00;;;11.23;;
3647;SDS011;1840;48.892;15.312;2022-09-30T07:31:25;17.90;;;10.00;;
3647;SDS011;1840;48.892;15.312;2022-09-30T07:33:59;14.70;;;10.67;;
3647;SDS011;1840;48.892;15.312;2022-09-30T07:36:28;13.47;;;10.50;;
3647;SDS011;1840;48.892;15.312;2022-09-30T07:38:59;18.80;;;11.30;;
3647;SDS011;1840;48.892;15.312;2022-09-30T07:41:33;13.30;;;9.77;;
3647;SDS011;1840;48.892;15.312;2022-09-30T07:44:06;15.23;;;10.30;;
3647;SDS011;1840;48.892;15.312;2022-09-30T07:46:37;17.00;;;11.20;;
3647;SDS011;1840;48.892;15.312;2022-09-30T07:49:06;12.10;;;9.20;;
3647;SDS011;1840;48.892;15.312;2022-09-30T07:51:38;16.80;;;10.23;;
3647;SDS011;1840;48.892;15.312;2022-09-30T07:54:11;11.93;;;8.40;;
3647;SDS011;1840;48.892;15.312;2022-09-30T07:56:41;13.67;;;9.00;;
3647;SDS011;1840;48.892;15.312;2022-09-30T07:59:31;13.60;;;8.70;;
3647;SDS011;1840;48.892;15.312;2022-09-30T08:02:01;14.10;;;9.60;;
3647;SDS011;1840;48.892;15.312;2022-09-30T08:04:29;15.63;;;9.73;;
3647;SDS011;1840;48.892;15.312;2022-09-30T08:06:58;13.00;;;8.83;;
3647;SDS011;1840;48.892;15.312;2022-09-30T08:09:28;11.00;;;8.67;;
3647;SDS011;1840;48.892;15.312;2022-09-30T08:11:57;12.83;;;8.43;;
3647;SDS011;1840;48.892;15.312;2022-09-30T08:14:26;14.43;;;9.57;;
3647;SDS011;1840;48.892;15.312;2022-09-30T08:16:56;13.00;;;8.57;;
3647;SDS011;1840;48.892;15.312;2022-09-30T08:19:26;14.27;;;8.80;;
3647;SDS011;1840;48.892;15.312;2022-09-30T08:21:55;9.40;;;7.80;;
3647;SDS011;1840;48.892;15.312;2022-09-30T08:24:24;17.33;;;8.80;;
3647;SDS011;1840;48.892;15.312;2022-09-30T08:26:53;16.40;;;9.33;;
3647;SDS011;1840;48.892;15.312;2022-09-30T08:29:21;10.90;;;8.30;;
3647;SDS011;1840;48.892;15.312;2022-09-30T08:32:11;12.20;;;9.10;;
3647;SDS011;1840;48.892;15.312;2022-09-30T08:34:39;13.37;;;9.57;;
3647;SDS011;1840;48.892;15.312;2022-09-30T08:37:07;17.40;;;11.20;;
3647;SDS011;1840;48.892;15.312;2022-09-30T08:39:36;18.60;;;10.43;;
3647;SDS011;1840;48.892;15.312;2022-09-30T08:42:11;12.67;;;8.67;;
3647;SDS011;1840;48.892;15.312;2022-09-30T08:45:06;10.63;;;6.77;;
3647;SDS011;1840;48.892;15.312;2022-09-30T08:47:45;10.27;;;6.30;;
3647;SDS011;1840;48.892;15.312;2022-09-30T08:50:19;8.97;;;6.70;;
3647;SDS011;1840;48.892;15.312;2022-09-30T08:52:56;8.90;;;6.40;;
3647;SDS011;1840;48.892;15.312;2022-09-30T08:55:28;10.43;;;5.97;;
3647;SDS011;1840;48.892;15.312;2022-09-30T08:58:01;8.17;;;5.87;;
3647;SDS011;1840;48.892;15.312;2022-09-30T09:00:31;8.07;;;5.50;;
3647;SDS011;1840;48.892;15.312;2022-09-30T09:03:02;10.40;;;5.90;;
3647;SDS011;1840;48.892;15.312;2022-09-30T09:05:33;8.33;;;5.70;;
3647;SDS011;1840;48.892;15.312;2022-09-30T09:08:19;7.23;;;5.20;;
3647;SDS011;1840;48.892;15.312;2022-09-30T09:10:57;11.83;;;6.27;;
3647;SDS011;1840;48.892;15.312;2022-09-30T09:13:37;10.40;;;7.07;;
3647;SDS011;1840;48.892;15.312;2022-09-30T09:16:13;8.83;;;5.63;;
3647;SDS011;1840;48.892;15.312;2022-09-30T09:18:48;10.23;;;6.57;;
3647;SDS011;1840;48.892;15.312;2022-09-30T09:21:33;16.83;;;6.20;;
3647;SDS011;1840;48.892;15.312;2022-09-30T09:24:14;8.77;;;6.10;;
3647;SDS011;1840;48.892;15.312;2022-09-30T09:26:44;8.70;;;5.47;;
3647;SDS011;1840;48.892;15.312;2022-09-30T09:29:30;11.73;;;6.77;;
3647;SDS011;1840;48.892;15.312;2022-09-30T09:32:08;16.80;;;7.53;;
3647;SDS011;1840;48.892;15.312;2022-09-30T09:34:41;7.83;;;4.70;;
3647;SDS011;1840;48.892;15.312;2022-09-30T09:37:12;12.97;;;6.20;;
3647;SDS011;1840;48.892;15.312;2022-09-30T09:39:51;22.00;;;8.07;;
3647;SDS011;1840;48.892;15.312;2022-09-30T09:42:41;17.50;;;7.70;;
3647;SDS011;1840;48.892;15.312;2022-09-30T09:45:25;11.80;;;5.70;;
3647;SDS011;1840;48.892;15.312;2022-09-30T09:48:01;16.33;;;7.17;;
3647;SDS011;1840;48.892;15.312;2022-09-30T09:50:37;8.87;;;6.03;;
3647;SDS011;1840;48.892;15.312;2022-09-30T09:56:15;20.50;;;6.20;;
3647;SDS011;1840;48.892;15.312;2022-09-30T09:59:08;9.17;;;5.50;;
3647;SDS011;1840;48.892;15.312;2022-09-30T10:01:39;13.10;;;6.10;;
3647;SDS011;1840;48.892;15.312;2022-09-30T10:04:11;8.83;;;6.13;;
3647;SDS011;1840;48.892;15.312;2022-09-30T10:06:44;13.20;;;6.10;;
3647;SDS011;1840;48.892;15.312;2022-09-30T10:09:21;10.60;;;6.83;;
3647;SDS011;1840;48.892;15.312;2022-09-30T10:11:51;10.50;;;5.93;;
3647;SDS011;1840;48.892;15.312;2022-09-30T10:14:47;10.20;;;6.00;;
3647;SDS011;1840;48.892;15.312;2022-09-30T10:17:19;11.50;;;6.13;;
3647;SDS011;1840;48.892;15.312;2022-09-30T10:19:51;9.00;;;5.80;;
3647;SDS011;1840;48.892;15.312;2022-09-30T10:22:26;8.63;;;5.30;;
3647;SDS011;1840;48.892;15.312;2022-09-30T10:25:09;12.77;;;5.67;;
3647;SDS011;1840;48.892;15.312;2022-09-30T10:27:48;8.20;;;5.07;;
3647;SDS011;1840;48.892;15.312;2022-09-30T10:30:29;12.53;;;5.60;;
3647;SDS011;1840;48.892;15.312;2022-09-30T10:33:09;8.17;;;5.43;;
3647;SDS011;1840;48.892;15.312;2022-09-30T10:35:48;12.90;;;6.70;;
3647;SDS011;1840;48.892;15.312;2022-09-30T10:38:24;6.87;;;4.63;;
3647;SDS011;1840;48.892;15.312;2022-09-30T10:40:55;9.17;;;5.43;;
3647;SDS011;1840;48.892;15.312;2022-09-30T10:43:24;14.57;;;7.00;;
3647;SDS011;1840;48.892;15.312;2022-09-30T10:45:56;8.33;;;5.33;;
3647;SDS011;1840;48.892;15.312;2022-09-30T10:48:48;7.83;;;5.53;;
3647;SDS011;1840;48.892;15.312;2022-09-30T10:51:27;14.40;;;5.30;;
3647;SDS011;1840;48.892;15.312;2022-09-30T10:54:00;8.97;;;5.33;;
3647;SDS011;1840;48.892;15.312;2022-09-30T10:56:40;13.33;;;6.10;;
3647;SDS011;1840;48.892;15.312;2022-09-30T10:59:15;12.73;;;5.43;;
3647;SDS011;1840;48.892;15.312;2022-09-30T11:01:56;10.27;;;5.23;;
3647;SDS011;1840;48.892;15.312;2022-09-30T11:04:33;11.23;;;5.87;;
3647;SDS011;1840;48.892;15.312;2022-09-30T11:07:10;8.43;;;5.00;;
3647;SDS011;1840;48.892;15.312;2022-09-30T11:09:45;7.33;;;4.90;;
3647;SDS011;1840;48.892;15.312;2022-09-30T11:12:18;9.10;;;4.23;;
3647;SDS011;1840;48.892;15.312;2022-09-30T11:14:54;8.27;;;5.20;;
3647;SDS011;1840;48.892;15.312;2022-09-30T11:17:31;9.00;;;4.33;;
3647;SDS011;1840;48.892;15.312;2022-09-30T11:20:05;13.60;;;4.67;;
3647;SDS011;1840;48.892;15.312;2022-09-30T11:22:42;12.17;;;4.93;;
3647;SDS011;1840;48.892;15.312;2022-09-30T11:25:21;7.40;;;4.13;;
3647;SDS011;1840;48.892;15.312;2022-09-30T11:27:57;6.87;;;4.60;;
3647;SDS011;1840;48.892;15.312;2022-09-30T11:30:42;6.90;;;4.03;;
3647;SDS011;1840;48.892;15.312;2022-09-30T11:33:25;13.37;;;4.37;;
3647;SDS011;1840;48.892;15.312;2022-09-30T11:36:11;6.77;;;3.53;;
3647;SDS011;1840;48.892;15.312;2022-09-30T11:38:54;10.30;;;3.30;;
3647;SDS011;1840;48.892;15.312;2022-09-30T11:41:31;7.23;;;3.90;;
3647;SDS011;1840;48.892;15.312;2022-09-30T11:44:06;6.13;;;4.10;;
3647;SDS011;1840;48.892;15.312;2022-09-30T11:46:51;6.73;;;4.10;;
3647;SDS011;1840;48.892;15.312;2022-09-30T11:49:36;16.67;;;5.30;;
3647;SDS011;1840;48.892;15.312;2022-09-30T11:52:15;7.50;;;4.17;;
3647;SDS011;1840;48.892;15.312;2022-09-30T11:54:57;8.57;;;4.13;;
3647;SDS011;1840;48.892;15.312;2022-09-30T11:57:43;11.03;;;4.17;;
3647;SDS011;1840;48.892;15.312;2022-09-30T12:00:18;10.50;;;3.83;;
3647;SDS011;1840;48.892;15.312;2022-09-30T12:02:48;7.90;;;4.13;;
3647;SDS011;1840;48.892;15.312;2022-09-30T12:05:18;8.83;;;3.50;;
3647;SDS011;1840;48.892;15.312;2022-09-30T12:07:51;10.03;;;3.80;;
3647;SDS011;1840;48.892;15.312;2022-09-30T12:10:23;5.07;;;3.37;;
3647;SDS011;1840;48.892;15.312;2022-09-30T12:12:57;5.70;;;3.77;;
3647;SDS011;1840;48.892;15.312;2022-09-30T12:15:31;4.67;;;2.93;;
3647;SDS011;1840;48.892;15.312;2022-09-30T12:18:02;6.53;;;3.40;;
3647;SDS011;1840;48.892;15.312;2022-09-30T12:20:36;5.27;;;3.20;;
3647;SDS011;1840;48.892;15.312;2022-09-30T12:23:12;5.43;;;3.50;;
3647;SDS011;1840;48.892;15.312;2022-09-30T12:25:45;9.30;;;4.30;;
3647;SDS011;1840;48.892;15.312;2022-09-30T12:28:21;7.67;;;3.80;;
3647;SDS011;1840;48.892;15.312;2022-09-30T12:31:17;8.17;;;4.33;;
3647;SDS011;1840;48.892;15.312;2022-09-30T12:34:00;5.73;;;3.43;;
3647;SDS011;1840;48.892;15.312;2022-09-30T12:36:42;7.63;;;4.20;;
3647;SDS011;1840;48.892;15.312;2022-09-30T12:39:26;6.30;;;3.70;;
3647;SDS011;1840;48.892;15.312;2022-09-30T12:42:15;6.93;;;3.90;;
3647;SDS011;1840;48.892;15.312;2022-09-30T12:45:24;7.20;;;3.30;;
3647;SDS011;1840;48.892;15.312;2022-09-30T12:48:21;6.20;;;3.80;;
3647;SDS011;1840;48.892;15.312;2022-09-30T12:50:54;48.37;;;7.63;;
3647;SDS011;1840;48.892;15.312;2022-09-30T12:53:24;9.00;;;4.13;;
3647;SDS011;1840;48.892;15.312;2022-09-30T12:56:00;6.00;;;3.73;;
3647;SDS011;1840;48.892;15.312;2022-09-30T12:58:30;7.07;;;3.97;;
3647;SDS011;1840;48.892;15.312;2022-09-30T13:01:05;6.47;;;3.03;;
3647;SDS011;1840;48.892;15.312;2022-09-30T13:03:47;9.23;;;3.37;;
3647;SDS011;1840;48.892;15.312;2022-09-30T13:06:18;6.87;;;3.80;;
3647;SDS011;1840;48.892;15.312;2022-09-30T13:08:56;6.60;;;3.40;;
3647;SDS011;1840;48.892;15.312;2022-09-30T13:11:38;6.80;;;3.97;;
3647;SDS011;1840;48.892;15.312;2022-09-30T13:14:16;8.30;;;3.80;;
3647;SDS011;1840;48.892;15.312;2022-09-30T13:17:00;9.90;;;3.90;;
3647;SDS011;1840;48.892;15.312;2022-09-30T13:19:43;6.37;;;3.80;;
3647;SDS011;1840;48.892;15.312;2022-09-30T13:25:19;7.03;;;4.97;;
3647;SDS011;1840;48.892;15.312;2022-09-30T13:27:47;7.70;;;4.80;;
3647;SDS011;1840;48.892;15.312;2022-09-30T13:30:35;6.77;;;4.87;;
3647;SDS011;1840;48.892;15.312;2022-09-30T13:33:27;7.70;;;4.37;;
3647;SDS011;1840;48.892;15.312;2022-09-30T13:36:25;7.00;;;4.40;;
3647;SDS011;1840;48.892;15.312;2022-09-30T13:41:59;9.33;;;4.93;;
3647;SDS011;1840;48.892;15.312;2022-09-30T13:44:36;8.43;;;4.63;;
3647;SDS011;1840;48.892;15.312;2022-09-30T13:47:16;7.97;;;5.13;;
3647;SDS011;1840;48.892;15.312;2022-09-30T13:49:50;11.40;;;4.27;;
3647;SDS011;1840;48.892;15.312;2022-09-30T13:52:24;9.30;;;4.37;;
3647;SDS011;1840;48.892;15.312;2022-09-30T13:54:55;6.00;;;4.13;;
3647;SDS011;1840;48.892;15.312;2022-09-30T13:57:27;6.03;;;4.00;;
3647;SDS011;1840;48.892;15.312;2022-09-30T14:00:15;9.83;;;4.03;;
3647;SDS011;1840;48.892;15.312;2022-09-30T14:02:54;8.70;;;5.27;;
3647;SDS011;1840;48.892;15.312;2022-09-30T14:05:50;8.70;;;4.40;;
3647;SDS011;1840;48.892;15.312;2022-09-30T14:17:20;10.20;;;5.70;;
3647;SDS011;1840;48.892;15.312;2022-09-30T14:20:05;7.67;;;5.90;;
3647;SDS011;1840;48.892;15.312;2022-09-30T14:23:03;8.23;;;5.80;;
3647;SDS011;1840;48.892;15.312;2022-09-30T14:25:41;11.47;;;6.20;;
3647;SDS011;1840;48.892;15.312;2022-09-30T14:28:16;8.90;;;5.60;;
3647;SDS011;1840;48.892;15.312;2022-09-30T14:30:58;7.03;;;5.20;;
3647;SDS011;1840;48.892;15.312;2022-09-30T14:33:38;7.30;;;5.20;;
3647;SDS011;1840;48.892;15.312;2022-09-30T14:36:10;11.43;;;5.77;;
3647;SDS011;1840;48.892;15.312;2022-09-30T14:38:44;7.73;;;5.00;;
3647;SDS011;1840;48.892;15.312;2022-09-30T14:41:16;11.30;;;5.27;;
3647;SDS011;1840;48.892;15.312;2022-09-30T14:43:46;8.80;;;4.97;;
3647;SDS011;1840;48.892;15.312;2022-09-30T14:46:23;7.67;;;4.93;;
3647;SDS011;1840;48.892;15.312;2022-09-30T14:48:56;6.80;;;4.53;;
3647;SDS011;1840;48.892;15.312;2022-09-30T14:51:33;7.07;;;4.47;;
3647;SDS011;1840;48.892;15.312;2022-09-30T14:54:16;7.80;;;4.50;;
3647;SDS011;1840;48.892;15.312;2022-09-30T14:56:46;8.33;;;4.50;;
3647;SDS011;1840;48.892;15.312;2022-09-30T14:59:17;7.13;;;5.10;;
3647;SDS011;1840;48.892;15.312;2022-09-30T15:01:47;7.60;;;4.27;;
3647;SDS011;1840;48.892;15.312;2022-09-30T15:04:20;7.07;;;4.30;;
3647;SDS011;1840;48.892;15.312;2022-09-30T15:06:52;10.00;;;6.50;;
3647;SDS011;1840;48.892;15.312;2022-09-30T15:09:33;19.47;;;8.33;;
3647;SDS011;1840;48.892;15.312;2022-09-30T15:12:03;11.17;;;7.10;;
3647;SDS011;1840;48.892;15.312;2022-09-30T15:14:33;10.97;;;7.20;;
3647;SDS011;1840;48.892;15.312;2022-09-30T15:17:15;20.33;;;9.93;;
3647;SDS011;1840;48.892;15.312;2022-09-30T15:19:44;21.00;;;9.43;;
3647;SDS011;1840;48.892;15.312;2022-09-30T15:22:13;13.07;;;8.00;;
3647;SDS011;1840;48.892;15.312;2022-09-30T15:24:43;11.87;;;6.60;;
3647;SDS011;1840;48.892;15.312;2022-09-30T15:27:15;15.90;;;7.57;;
3647;SDS011;1840;48.892;15.312;2022-09-30T15:29:54;8.43;;;5.83;;
3647;SDS011;1840;48.892;15.312;2022-09-30T15:32:22;11.43;;;6.70;;
3647;SDS011;1840;48.892;15.312;2022-09-30T15:34:52;14.37;;;7.73;;
3647;SDS011;1840;48.892;15.312;2022-09-30T15:37:24;13.70;;;7.77;;
3647;SDS011;1840;48.892;15.312;2022-09-30T15:40:00;15.60;;;6.80;;
3647;SDS011;1840;48.892;15.312;2022-09-30T15:42:51;11.90;;;7.00;;
3647;SDS011;1840;48.892;15.312;2022-09-30T15:45:26;11.10;;;6.60;;
3647;SDS011;1840;48.892;15.312;2022-09-30T15:48:01;11.47;;;6.13;;
3647;SDS011;1840;48.892;15.312;2022-09-30T15:50:35;7.00;;;4.30;;
3647;SDS011;1840;48.892;15.312;2022-09-30T15:53:04;9.37;;;5.30;;
3647;SDS011;1840;48.892;15.312;2022-09-30T15:55:42;14.27;;;4.57;;